Avioradar koristi kolačiće da bi Vam omogućio jednostavnije i ugodnije korištenje stranice. 

AVIORADAR - Hrvatski zrakoplovni portal

METAR & TAF

[Source: ADDS]
METAR
LDZA 151330Z VRB04KT CAVOK 26/15 Q1024 NOSIG =
LDZA 151125Z 1512/1612 VRB02KT CAVOK TX26/1513Z TN11/1604Z PROB30 TEMPO 1603/1606 1500 BCFG LDSP 151330Z 23011KT CAVOK 27/14 Q1022 NOSIG =
LDSP 151125Z 1512/1612 23008KT CAVOK TX29/1513Z TN19/1605Z TEMPO 1512/1514 23011KT BECMG 1515/1517 30007KT BECMG 1610/1612 23010KT LDDU 151330Z 31008KT 280V340 CAVOK 26/12 Q1023 NOSIG =
LDDU 151125Z 1512/1612 29010KT CAVOK TX27/1512Z TN20/1605Z BECMG 1517/1519 02009KT BECMG 1610/1612 29009KT LDPL 151330Z 27008KT 210V340 CAVOK 25/18 Q1023 NOSIG =
LDPL 151125Z 1512/1612 27008KT CAVOK TX28/1512Z TN19/1604Z BECMG 1517/1519 VRB02KT BECMG 1610/1612 27008KT LDZD 151330Z 30011KT 260V340 CAVOK 28/12 Q1022 NOSIG =
LDZD 151125Z 1512/1612 30010KT CAVOK TX29/1512Z TN15/1605Z BECMG 1516/1518 VRB02KT PROB40 TEMPO 1600/1605 1200 BCFG PROB30 TEMPO 1601/1605 0400 FG BECMG 1610/1612 30008KT LDRI 151330Z 26005KT 210V300 CAVOK 27/14 Q1023 =
LDRI 151125Z 1512/1612 32007KT CAVOK TX28/1512Z TN19/1604Z BECMG 1515/1516 VRB02KT BECMG 1607/1609 29007KT LDOS 151330Z VRB04KT CAVOK 26/13 Q1024 =
LDOS 151125Z 1512/1612 VRB02KT CAVOK TX25/1513Z TN10/1604Z
TAF
LDZA 151125Z 1512/1612 VRB02KT CAVOK TX26/1513Z TN11/1604Z PROB30 TEMPO 1603/1606 1500 BCFG =
LDSP 151125Z 1512/1612 23008KT CAVOK TX29/1513Z TN19/1605Z TEMPO 1512/1514 23011KT BECMG 1515/1517 30007KT BECMG 1610/1612 23010KT =
LDDU 151125Z 1512/1612 29010KT CAVOK TX27/1512Z TN20/1605Z BECMG 1517/1519 02009KT BECMG 1610/1612 29009KT =
LDPL 151125Z 1512/1612 27008KT CAVOK TX28/1512Z TN19/1604Z BECMG 1517/1519 VRB02KT BECMG 1610/1612 27008KT =
LDZD 151125Z 1512/1612 30010KT CAVOK TX29/1512Z TN15/1605Z BECMG 1516/1518 VRB02KT PROB40 TEMPO 1600/1605 1200 BCFG PROB30 TEMPO 1601/1605 0400 FG BECMG 1610/1612 30008KT =
LDRI 151125Z 1512/1612 32007KT CAVOK TX28/1512Z TN19/1604Z BECMG 1515/1516 VRB02KT BECMG 1607/1609 29007KT =
LDOS 151125Z 1512/1612 VRB02KT CAVOK TX25/1513Z TN10/1604Z =
SR / SS: 04:34 / 17:07 UTC (Zagreb 2019-09-15)